AUL510 UWGG-ULLI
Flight info
| Callsign | AUL510 |
|---|---|
| Flight time | 1h 46m |
| Altitude | 36000 |
| Route | LARNO2U LARNO T784 ROKUR P164 PINOK N50 GENPA GENPA1A |
| Aircraft | B738/M-SDE2E3FGHIRWXY/LB1 |
Departure
| Time | 2026-05-07 09:41 |
|---|---|
| Airport | Nizhny Novgorod / Strigino International Airport (UWGG) |
Arrival
| Time | 2026-05-07 11:28 |
|---|---|
| Airport | Pulkovo Airport (ULLI) |
| Time | Latitude | Longitude | Altitude | Speed | Heading |
|---|---|---|---|---|---|
| 2026-05-07 09:12 | 56.21858 | 43.78849 | 265 ft | 0 kts | 102° |
| 2026-05-07 09:27 | 56.21858 | 43.78848 | 265 ft | 1 kts | 102° |
| 2026-05-07 09:28 | 56.21863 | 43.78809 | 265 ft | 4 kts | 102° |
| 2026-05-07 09:28 | 56.21866 | 43.78769 | 265 ft | 4 kts | 85° |
| 2026-05-07 09:28 | 56.21858 | 43.78727 | 265 ft | 4 kts | 44° |
| 2026-05-07 09:28 | 56.21836 | 43.78704 | 265 ft | 4 kts | 14° |
| 2026-05-07 09:29 | 56.21824 | 43.78698 | 265 ft | 0 kts | 11° |
| 2026-05-07 09:33 | 56.21826 | 43.78699 | 265 ft | 1 kts | 11° |
| 2026-05-07 09:33 | 56.21834 | 43.78702 | 265 ft | 2 kts | 11° |
| 2026-05-07 09:34 | 56.21850 | 43.78708 | 265 ft | 3 kts | 11° |
| 2026-05-07 09:34 | 56.21874 | 43.78710 | 265 ft | 4 kts | 353° |
| 2026-05-07 09:34 | 56.21904 | 43.78694 | 265 ft | 5 kts | 340° |
| 2026-05-07 09:34 | 56.21936 | 43.78662 | 265 ft | 6 kts | 334° |
| 2026-05-07 09:35 | 56.21975 | 43.78648 | 265 ft | 6 kts | 6° |
| 2026-05-07 09:35 | 56.22019 | 43.78662 | 265 ft | 7 kts | 12° |
| 2026-05-07 09:35 | 56.22068 | 43.78680 | 265 ft | 8 kts | 12° |
| 2026-05-07 09:35 | 56.22122 | 43.78700 | 265 ft | 8 kts | 11° |
| 2026-05-07 09:36 | 56.22181 | 43.78721 | 265 ft | 9 kts | 12° |
| 2026-05-07 09:36 | 56.22243 | 43.78744 | 265 ft | 9 kts | 11° |
| 2026-05-07 09:36 | 56.22305 | 43.78765 | 265 ft | 9 kts | 11° |
| 2026-05-07 09:36 | 56.22367 | 43.78790 | 265 ft | 9 kts | 11° |
| 2026-05-07 09:37 | 56.22429 | 43.78821 | 265 ft | 9 kts | 22° |
| 2026-05-07 09:37 | 56.22493 | 43.78859 | 265 ft | 10 kts | 13° |
| 2026-05-07 09:37 | 56.22559 | 43.78885 | 265 ft | 10 kts | 11° |
| 2026-05-07 09:37 | 56.22623 | 43.78908 | 265 ft | 9 kts | 12° |
| 2026-05-07 09:38 | 56.22688 | 43.78933 | 265 ft | 9 kts | 12° |
| 2026-05-07 09:38 | 56.22752 | 43.78956 | 265 ft | 9 kts | 11° |
| 2026-05-07 09:38 | 56.22816 | 43.78979 | 265 ft | 9 kts | 11° |
| 2026-05-07 09:38 | 56.22881 | 43.79003 | 265 ft | 12 kts | 11° |
| 2026-05-07 09:39 | 56.22997 | 43.79044 | 265 ft | 22 kts | 12° |
| 2026-05-07 09:39 | 56.23174 | 43.79110 | 265 ft | 30 kts | 12° |
| 2026-05-07 09:39 | 56.23403 | 43.79195 | 265 ft | 37 kts | 11° |
| 2026-05-07 09:39 | 56.23658 | 43.79244 | 265 ft | 36 kts | 2° |
| 2026-05-07 09:40 | 56.23899 | 43.79261 | 265 ft | 33 kts | 1° |
| 2026-05-07 09:40 | 56.24083 | 43.79184 | 265 ft | 21 kts | 305° |
| 2026-05-07 09:40 | 56.24067 | 43.78979 | 267 ft | 20 kts | 200° |
| 2026-05-07 09:40 | 56.23934 | 43.78927 | 266 ft | 19 kts | 192° |
| 2026-05-07 09:41 | 56.23734 | 43.78854 | 264 ft | 61 kts | 191° |
| 2026-05-07 09:41 | 56.23039 | 43.78599 | 268 ft | 141 kts | 190° |
| 2026-05-07 09:41 | 56.21855 | 43.78258 | 432 ft | 196 kts | 188° |
| 2026-05-07 09:41 | 56.20428 | 43.77670 | 1064 ft | 223 kts | 193° |
| 2026-05-07 09:42 | 56.18873 | 43.76907 | 1834 ft | 239 kts | 193° |
| 2026-05-07 09:42 | 56.17305 | 43.75845 | 2825 ft | 243 kts | 205° |
| 2026-05-07 09:42 | 56.15774 | 43.74470 | 3728 ft | 250 kts | 208° |
| 2026-05-07 09:42 | 56.14278 | 43.72888 | 4724 ft | 250 kts | 212° |
| 2026-05-07 09:43 | 56.12744 | 43.71376 | 5628 ft | 255 kts | 210° |
| 2026-05-07 09:43 | 56.11143 | 43.69909 | 6421 ft | 261 kts | 210° |
| 2026-05-07 09:43 | 56.09511 | 43.68470 | 7274 ft | 263 kts | 210° |
| 2026-05-07 09:43 | 56.07859 | 43.67026 | 7723 ft | 262 kts | 210° |
| 2026-05-07 09:44 | 56.06213 | 43.65590 | 7983 ft | 268 kts | 209° |
| 2026-05-07 09:44 | 56.04512 | 43.64099 | 7996 ft | 274 kts | 209° |
| 2026-05-07 09:44 | 56.02797 | 43.62615 | 7977 ft | 271 kts | 210° |
| 2026-05-07 09:44 | 56.01333 | 43.60618 | 7995 ft | 262 kts | 230° |
| 2026-05-07 09:45 | 56.00159 | 43.58188 | 7977 ft | 261 kts | 231° |
| 2026-05-07 09:45 | 55.98973 | 43.55727 | 7982 ft | 261 kts | 231° |
| 2026-05-07 09:45 | 55.97783 | 43.53262 | 7970 ft | 261 kts | 231° |
| 2026-05-07 09:45 | 55.96590 | 43.50800 | 7981 ft | 263 kts | 231° |
| 2026-05-07 09:46 | 55.95390 | 43.48331 | 8257 ft | 269 kts | 231° |
| 2026-05-07 09:46 | 55.94157 | 43.45804 | 9102 ft | 270 kts | 231° |
| 2026-05-07 09:46 | 55.92928 | 43.43287 | 9976 ft | 271 kts | 231° |
| 2026-05-07 09:46 | 55.91664 | 43.40701 | 10459 ft | 286 kts | 231° |
| 2026-05-07 09:47 | 55.90298 | 43.37907 | 10628 ft | 311 kts | 231° |
| 2026-05-07 09:47 | 55.88823 | 43.34897 | 10807 ft | 334 kts | 231° |
| 2026-05-07 09:47 | 55.87248 | 43.31690 | 11056 ft | 352 kts | 231° |
| 2026-05-07 09:47 | 55.85615 | 43.28375 | 11626 ft | 358 kts | 230° |
| 2026-05-07 09:48 | 55.83963 | 43.25031 | 12347 ft | 361 kts | 231° |
| 2026-05-07 09:48 | 55.82444 | 43.21470 | 13023 ft | 363 kts | 244° |
| 2026-05-07 09:48 | 55.81691 | 43.17185 | 13706 ft | 364 kts | 264° |
| 2026-05-07 09:48 | 55.81756 | 43.12687 | 14345 ft | 367 kts | 279° |
| 2026-05-07 09:49 | 55.82510 | 43.08395 | 14937 ft | 373 kts | 295° |
| 2026-05-07 09:49 | 55.83906 | 43.04466 | 15544 ft | 378 kts | 302° |
| 2026-05-07 09:49 | 55.85437 | 43.00615 | 16109 ft | 382 kts | 303° |
| 2026-05-07 09:49 | 55.87000 | 42.96756 | 16681 ft | 386 kts | 303° |
| 2026-05-07 09:50 | 55.88578 | 42.92847 | 17273 ft | 389 kts | 303° |
| 2026-05-07 09:50 | 55.90153 | 42.88906 | 17857 ft | 392 kts | 303° |
| 2026-05-07 09:50 | 55.91731 | 42.84916 | 18389 ft | 396 kts | 302° |
| 2026-05-07 09:50 | 55.93318 | 42.80878 | 18867 ft | 399 kts | 302° |
| 2026-05-07 09:51 | 55.94916 | 42.76792 | 19350 ft | 402 kts | 302° |
| 2026-05-07 09:51 | 55.96498 | 42.72735 | 19838 ft | 405 kts | 302° |
| 2026-05-07 09:51 | 55.98111 | 42.68590 | 20302 ft | 408 kts | 302° |
| 2026-05-07 09:51 | 55.99739 | 42.64399 | 20766 ft | 411 kts | 302° |
| 2026-05-07 09:52 | 56.01377 | 42.60181 | 21216 ft | 414 kts | 302° |
| 2026-05-07 09:52 | 56.03026 | 42.55923 | 21656 ft | 417 kts | 302° |
| 2026-05-07 09:52 | 56.04676 | 42.51634 | 22086 ft | 420 kts | 301° |
| 2026-05-07 09:52 | 56.06295 | 42.47271 | 22497 ft | 423 kts | 301° |
| 2026-05-07 09:53 | 56.07905 | 42.42851 | 22926 ft | 425 kts | 301° |
| 2026-05-07 09:53 | 56.09502 | 42.38448 | 23342 ft | 428 kts | 300° |
| 2026-05-07 09:53 | 56.11129 | 42.33964 | 23748 ft | 430 kts | 300° |
| 2026-05-07 09:53 | 56.12762 | 42.29468 | 24110 ft | 431 kts | 300° |
| 2026-05-07 09:54 | 56.14404 | 42.24954 | 24449 ft | 434 kts | 300° |
| 2026-05-07 09:54 | 56.16056 | 42.20409 | 24787 ft | 436 kts | 300° |
| 2026-05-07 09:54 | 56.17713 | 42.15844 | 25124 ft | 437 kts | 300° |
| 2026-05-07 09:54 | 56.19376 | 42.11260 | 25452 ft | 439 kts | 301° |
| 2026-05-07 09:55 | 56.21156 | 42.06745 | 25750 ft | 443 kts | 303° |
| 2026-05-07 09:55 | 56.23032 | 42.02324 | 26044 ft | 446 kts | 304° |
| 2026-05-07 09:55 | 56.24934 | 41.97962 | 26351 ft | 448 kts | 305° |
| 2026-05-07 09:55 | 56.26867 | 41.93542 | 26688 ft | 448 kts | 304° |
| 2026-05-07 09:56 | 56.28797 | 41.89098 | 27052 ft | 449 kts | 304° |
| 2026-05-07 09:56 | 56.30717 | 41.84636 | 27320 ft | 451 kts | 304° |
| 2026-05-07 09:56 | 56.32636 | 41.80141 | 27595 ft | 452 kts | 304° |
| 2026-05-07 09:56 | 56.34550 | 41.75633 | 27995 ft | 451 kts | 304° |
| 2026-05-07 09:57 | 56.36429 | 41.71194 | 28431 ft | 449 kts | 303° |
| 2026-05-07 09:57 | 56.38319 | 41.66718 | 28878 ft | 447 kts | 303° |
| 2026-05-07 09:57 | 56.40208 | 41.62233 | 29274 ft | 446 kts | 303° |
| 2026-05-07 09:57 | 56.41457 | 41.59263 | 29514 ft | 446 kts | 303° |
| 2026-05-07 09:58 | 56.43334 | 41.54795 | 29891 ft | 446 kts | 303° |
| 2026-05-07 09:58 | 56.45810 | 41.48892 | 30517 ft | 441 kts | 303° |
| 2026-05-07 09:58 | 56.47036 | 41.45963 | 30794 ft | 439 kts | 303° |
| 2026-05-07 09:58 | 56.48878 | 41.41555 | 31096 ft | 439 kts | 303° |
| 2026-05-07 09:59 | 56.50719 | 41.37140 | 31333 ft | 440 kts | 303° |
| 2026-05-07 09:59 | 56.52567 | 41.32701 | 31631 ft | 439 kts | 303° |
| 2026-05-07 09:59 | 56.54406 | 41.28275 | 31980 ft | 438 kts | 303° |
| 2026-05-07 09:59 | 56.56232 | 41.23877 | 32331 ft | 436 kts | 303° |
| 2026-05-07 10:00 | 56.58053 | 41.19480 | 32620 ft | 436 kts | 303° |
| 2026-05-07 10:00 | 56.59871 | 41.15083 | 32894 ft | 435 kts | 303° |
| 2026-05-07 10:00 | 56.61501 | 41.10485 | 33204 ft | 431 kts | 295° |
| 2026-05-07 10:00 | 56.62723 | 41.05564 | 33609 ft | 424 kts | 286° |
| 2026-05-07 10:01 | 56.63608 | 41.00474 | 33958 ft | 421 kts | 284° |
| 2026-05-07 10:01 | 56.64461 | 40.95376 | 34135 ft | 423 kts | 284° |
| 2026-05-07 10:01 | 56.65315 | 40.90256 | 34292 ft | 424 kts | 284° |
| 2026-05-07 10:01 | 56.66163 | 40.85200 | 34510 ft | 424 kts | 284° |
| 2026-05-07 10:02 | 56.67027 | 40.80084 | 34760 ft | 423 kts | 284° |
| 2026-05-07 10:02 | 56.67893 | 40.74978 | 34973 ft | 422 kts | 284° |
| 2026-05-07 10:02 | 56.68762 | 40.69862 | 35183 ft | 422 kts | 284° |
| 2026-05-07 10:02 | 56.69628 | 40.64757 | 35389 ft | 422 kts | 284° |
| 2026-05-07 10:03 | 56.70491 | 40.59656 | 35582 ft | 422 kts | 284° |
| 2026-05-07 10:03 | 56.71354 | 40.54548 | 35780 ft | 422 kts | 284° |
| 2026-05-07 10:03 | 56.72213 | 40.49441 | 35895 ft | 421 kts | 284° |
| 2026-05-07 10:04 | 56.73918 | 40.39268 | 35893 ft | 419 kts | 284° |
| 2026-05-07 10:04 | 56.75610 | 40.29108 | 35903 ft | 419 kts | 284° |
| 2026-05-07 10:05 | 56.77292 | 40.18954 | 35894 ft | 419 kts | 284° |
| 2026-05-07 10:05 | 56.78966 | 40.08784 | 35897 ft | 419 kts | 284° |
| 2026-05-07 10:06 | 56.80636 | 39.98589 | 35896 ft | 420 kts | 284° |
| 2026-05-07 10:06 | 56.82299 | 39.88368 | 35898 ft | 421 kts | 284° |
| 2026-05-07 10:07 | 56.83966 | 39.78125 | 35891 ft | 421 kts | 284° |
| 2026-05-07 10:07 | 56.85629 | 39.67867 | 35889 ft | 421 kts | 283° |
| 2026-05-07 10:08 | 56.87285 | 39.57587 | 35899 ft | 421 kts | 283° |
| 2026-05-07 10:08 | 56.88931 | 39.47306 | 35898 ft | 421 kts | 283° |
| 2026-05-07 10:09 | 56.90568 | 39.37018 | 35898 ft | 421 kts | 283° |
| 2026-05-07 10:09 | 56.92195 | 39.26725 | 35908 ft | 420 kts | 283° |
| 2026-05-07 10:10 | 56.93810 | 39.16451 | 35898 ft | 420 kts | 283° |
| 2026-05-07 10:10 | 56.95413 | 39.06195 | 35909 ft | 418 kts | 283° |
| 2026-05-07 10:11 | 56.96992 | 38.96027 | 35914 ft | 417 kts | 283° |
| 2026-05-07 10:11 | 56.98567 | 38.85817 | 35917 ft | 416 kts | 283° |
| 2026-05-07 10:12 | 57.00134 | 38.75603 | 35940 ft | 415 kts | 283° |
| 2026-05-07 10:12 | 57.01688 | 38.65406 | 35898 ft | 415 kts | 283° |
| 2026-05-07 10:13 | 57.03234 | 38.55204 | 35912 ft | 414 kts | 283° |
| 2026-05-07 10:13 | 57.04762 | 38.45054 | 35912 ft | 414 kts | 283° |
| 2026-05-07 10:14 | 57.06289 | 38.34851 | 35914 ft | 414 kts | 283° |
| 2026-05-07 10:14 | 57.07806 | 38.24650 | 35916 ft | 414 kts | 283° |
| 2026-05-07 10:15 | 57.09315 | 38.14435 | 35947 ft | 414 kts | 282° |
| 2026-05-07 10:15 | 57.10808 | 38.04264 | 35924 ft | 414 kts | 282° |
| 2026-05-07 10:16 | 57.12306 | 37.94003 | 35917 ft | 414 kts | 282° |
| 2026-05-07 10:16 | 57.13792 | 37.83750 | 35917 ft | 414 kts | 282° |
| 2026-05-07 10:17 | 57.15272 | 37.73490 | 35916 ft | 414 kts | 282° |
| 2026-05-07 10:17 | 57.16762 | 37.63301 | 35923 ft | 415 kts | 285° |
| 2026-05-07 10:18 | 57.18824 | 37.53345 | 35927 ft | 416 kts | 289° |
| 2026-05-07 10:18 | 57.21007 | 37.43440 | 35925 ft | 416 kts | 289° |
| 2026-05-07 10:19 | 57.23157 | 37.33524 | 35926 ft | 416 kts | 288° |
| 2026-05-07 10:19 | 57.25262 | 37.23635 | 35923 ft | 416 kts | 288° |
| 2026-05-07 10:20 | 57.27361 | 37.13686 | 35923 ft | 416 kts | 288° |
| 2026-05-07 10:20 | 57.29449 | 37.03730 | 35923 ft | 415 kts | 288° |
| 2026-05-07 10:21 | 57.31532 | 36.93753 | 35924 ft | 416 kts | 288° |
| 2026-05-07 10:21 | 57.33605 | 36.83781 | 35922 ft | 415 kts | 287° |
| 2026-05-07 10:22 | 57.35666 | 36.73813 | 35895 ft | 414 kts | 288° |
| 2026-05-07 10:22 | 57.37713 | 36.63864 | 35919 ft | 413 kts | 288° |
| 2026-05-07 10:23 | 57.39748 | 36.53927 | 35924 ft | 412 kts | 287° |
| 2026-05-07 10:23 | 57.41777 | 36.43966 | 35948 ft | 412 kts | 287° |
| 2026-05-07 10:24 | 57.43795 | 36.34011 | 35935 ft | 412 kts | 287° |
| 2026-05-07 10:24 | 57.45804 | 36.24049 | 35931 ft | 412 kts | 287° |
| 2026-05-07 10:25 | 57.47803 | 36.14097 | 35918 ft | 411 kts | 287° |
| 2026-05-07 10:25 | 57.49797 | 36.04139 | 35918 ft | 411 kts | 287° |
| 2026-05-07 10:26 | 57.51797 | 35.94206 | 35923 ft | 410 kts | 287° |
| 2026-05-07 10:26 | 57.53791 | 35.84261 | 35927 ft | 410 kts | 287° |
| 2026-05-07 10:27 | 57.55773 | 35.74318 | 35923 ft | 409 kts | 287° |
| 2026-05-07 10:27 | 57.57742 | 35.64384 | 35920 ft | 408 kts | 287° |
| 2026-05-07 10:28 | 57.59700 | 35.54461 | 35924 ft | 407 kts | 287° |
| 2026-05-07 10:28 | 57.61682 | 35.44561 | 35925 ft | 407 kts | 287° |
| 2026-05-07 10:29 | 57.63711 | 35.34702 | 35950 ft | 407 kts | 287° |
| 2026-05-07 10:29 | 57.65714 | 35.24906 | 35936 ft | 406 kts | 287° |
| 2026-05-07 10:30 | 57.68709 | 35.10112 | 35921 ft | 406 kts | 287° |
| 2026-05-07 10:30 | 57.70770 | 35.00289 | 35929 ft | 408 kts | 292° |
| 2026-05-07 10:31 | 57.73931 | 34.91373 | 35928 ft | 417 kts | 305° |
| 2026-05-07 10:31 | 57.77791 | 34.83233 | 35951 ft | 418 kts | 306° |
| 2026-05-07 10:32 | 57.81648 | 34.75077 | 35953 ft | 418 kts | 305° |
| 2026-05-07 10:32 | 57.85488 | 34.66862 | 35944 ft | 418 kts | 305° |
| 2026-05-07 10:33 | 57.89312 | 34.58622 | 35946 ft | 419 kts | 305° |
| 2026-05-07 10:33 | 57.93132 | 34.50356 | 35941 ft | 419 kts | 305° |
| 2026-05-07 10:34 | 57.96948 | 34.42071 | 35947 ft | 419 kts | 304° |
| 2026-05-07 10:34 | 58.00764 | 34.33756 | 35943 ft | 419 kts | 304° |
| 2026-05-07 10:35 | 58.04558 | 34.25467 | 35945 ft | 420 kts | 304° |
| 2026-05-07 10:35 | 58.08382 | 34.17082 | 35946 ft | 421 kts | 304° |
| 2026-05-07 10:36 | 58.12205 | 34.08678 | 35942 ft | 421 kts | 304° |
| 2026-05-07 10:36 | 58.16025 | 34.00253 | 35948 ft | 421 kts | 304° |
| 2026-05-07 10:37 | 58.19833 | 33.91821 | 35960 ft | 421 kts | 304° |
| 2026-05-07 10:37 | 58.23603 | 33.83444 | 35955 ft | 420 kts | 304° |
| 2026-05-07 10:38 | 58.27386 | 33.75008 | 35957 ft | 419 kts | 304° |
| 2026-05-07 10:38 | 58.31153 | 33.66576 | 35952 ft | 418 kts | 304° |
| 2026-05-07 10:39 | 58.34910 | 33.58137 | 35963 ft | 416 kts | 304° |
| 2026-05-07 10:39 | 58.38644 | 33.49717 | 36012 ft | 416 kts | 303° |
| 2026-05-07 10:40 | 58.42376 | 33.41269 | 35974 ft | 416 kts | 303° |
| 2026-05-07 10:40 | 58.46101 | 33.32810 | 35962 ft | 416 kts | 303° |
| 2026-05-07 10:41 | 58.49824 | 33.24326 | 35965 ft | 416 kts | 303° |
| 2026-05-07 10:41 | 58.53516 | 33.15883 | 35972 ft | 416 kts | 303° |
| 2026-05-07 10:42 | 58.57227 | 33.07361 | 35963 ft | 417 kts | 303° |
| 2026-05-07 10:42 | 58.60944 | 32.98791 | 35981 ft | 417 kts | 303° |
| 2026-05-07 10:43 | 58.64650 | 32.90217 | 35981 ft | 417 kts | 303° |
| 2026-05-07 10:43 | 58.68357 | 32.81607 | 35973 ft | 418 kts | 303° |
| 2026-05-07 10:44 | 58.72058 | 32.72982 | 35974 ft | 418 kts | 303° |
| 2026-05-07 10:44 | 58.75723 | 32.64408 | 35980 ft | 417 kts | 302° |
| 2026-05-07 10:45 | 58.79411 | 32.55750 | 35976 ft | 417 kts | 302° |
| 2026-05-07 10:45 | 58.81257 | 32.51399 | 35623 ft | 423 kts | 302° |
| 2026-05-07 10:45 | 58.83118 | 32.47007 | 35187 ft | 419 kts | 302° |
| 2026-05-07 10:46 | 58.84339 | 32.44126 | 34709 ft | 419 kts | 302° |
| 2026-05-07 10:46 | 58.86176 | 32.39784 | 34174 ft | 415 kts | 302° |
| 2026-05-07 10:46 | 58.88004 | 32.35456 | 33287 ft | 417 kts | 301° |
| 2026-05-07 10:46 | 58.89831 | 32.31115 | 32620 ft | 414 kts | 301° |
| 2026-05-07 10:47 | 58.91654 | 32.26775 | 31893 ft | 414 kts | 301° |
| 2026-05-07 10:47 | 58.93469 | 32.22446 | 31171 ft | 414 kts | 301° |
| 2026-05-07 10:47 | 58.95284 | 32.18109 | 30450 ft | 414 kts | 301° |
| 2026-05-07 10:47 | 58.97099 | 32.13762 | 29952 ft | 421 kts | 301° |
| 2026-05-07 10:48 | 58.98985 | 32.09210 | 29491 ft | 439 kts | 301° |
| 2026-05-07 10:48 | 59.00898 | 32.04616 | 29850 ft | 437 kts | 301° |
| 2026-05-07 10:48 | 59.02814 | 32.00018 | 30091 ft | 436 kts | 301° |
| 2026-05-07 10:48 | 59.04720 | 31.95436 | 30245 ft | 437 kts | 301° |
| 2026-05-07 10:49 | 59.06591 | 31.90926 | 30574 ft | 435 kts | 301° |
| 2026-05-07 10:49 | 59.08493 | 31.86320 | 30720 ft | 435 kts | 301° |
| 2026-05-07 10:49 | 59.10389 | 31.81721 | 30909 ft | 435 kts | 300° |
| 2026-05-07 10:49 | 59.12185 | 31.77016 | 31108 ft | 431 kts | 297° |
| 2026-05-07 10:50 | 59.13864 | 31.72196 | 31310 ft | 428 kts | 296° |
| 2026-05-07 10:50 | 59.15495 | 31.67345 | 31516 ft | 427 kts | 295° |
| 2026-05-07 10:50 | 59.17114 | 31.62499 | 31750 ft | 427 kts | 295° |
| 2026-05-07 10:50 | 59.18739 | 31.57656 | 31949 ft | 426 kts | 295° |
| 2026-05-07 10:51 | 59.20370 | 31.52833 | 32159 ft | 425 kts | 295° |
| 2026-05-07 10:51 | 59.21979 | 31.48093 | 32367 ft | 424 kts | 295° |
| 2026-05-07 10:51 | 59.23585 | 31.43398 | 32494 ft | 407 kts | 295° |
| 2026-05-07 10:51 | 59.25139 | 31.38852 | 32057 ft | 400 kts | 295° |
| 2026-05-07 10:52 | 59.26681 | 31.34305 | 31197 ft | 403 kts | 295° |
| 2026-05-07 10:52 | 59.28237 | 31.29688 | 30210 ft | 408 kts | 295° |
| 2026-05-07 10:52 | 59.29800 | 31.25055 | 29043 ft | 406 kts | 295° |
| 2026-05-07 10:52 | 59.31353 | 31.20460 | 27967 ft | 402 kts | 295° |
| 2026-05-07 10:53 | 59.32912 | 31.15820 | 27259 ft | 414 kts | 295° |
| 2026-05-07 10:53 | 59.34499 | 31.11098 | 27339 ft | 414 kts | 295° |
| 2026-05-07 10:53 | 59.36066 | 31.06435 | 27325 ft | 415 kts | 295° |
| 2026-05-07 10:53 | 59.37658 | 31.01687 | 27323 ft | 416 kts | 295° |
| 2026-05-07 10:54 | 59.39209 | 30.97078 | 27056 ft | 394 kts | 295° |
| 2026-05-07 10:54 | 59.40701 | 30.92629 | 26182 ft | 387 kts | 295° |
| 2026-05-07 10:54 | 59.42155 | 30.88249 | 25132 ft | 386 kts | 295° |
| 2026-05-07 10:54 | 59.43617 | 30.83826 | 24173 ft | 384 kts | 295° |
| 2026-05-07 10:55 | 59.45066 | 30.79442 | 23289 ft | 380 kts | 295° |
| 2026-05-07 10:55 | 59.46502 | 30.75097 | 22347 ft | 375 kts | 295° |
| 2026-05-07 10:55 | 59.47914 | 30.70820 | 21460 ft | 370 kts | 296° |
| 2026-05-07 10:55 | 59.49290 | 30.66640 | 20566 ft | 366 kts | 296° |
| 2026-05-07 10:56 | 59.50671 | 30.62443 | 19718 ft | 362 kts | 296° |
| 2026-05-07 10:56 | 59.52035 | 30.58288 | 18804 ft | 361 kts | 297° |
| 2026-05-07 10:56 | 59.53412 | 30.54075 | 17988 ft | 367 kts | 297° |
| 2026-05-07 10:56 | 59.54709 | 30.49835 | 17460 ft | 360 kts | 290° |
| 2026-05-07 10:57 | 59.55482 | 30.45214 | 17010 ft | 350 kts | 282° |
| 2026-05-07 10:57 | 59.56148 | 30.40614 | 16603 ft | 345 kts | 282° |
| 2026-05-07 10:57 | 59.56812 | 30.36066 | 16076 ft | 344 kts | 282° |
| 2026-05-07 10:57 | 59.57482 | 30.31519 | 15533 ft | 344 kts | 282° |
| 2026-05-07 10:58 | 59.58148 | 30.27027 | 15060 ft | 343 kts | 282° |
| 2026-05-07 10:58 | 59.58814 | 30.22560 | 14853 ft | 335 kts | 282° |
| 2026-05-07 10:58 | 59.59463 | 30.18224 | 14776 ft | 323 kts | 282° |
| 2026-05-07 10:58 | 59.60089 | 30.14032 | 14703 ft | 313 kts | 282° |
| 2026-05-07 10:59 | 59.60695 | 30.09966 | 14645 ft | 304 kts | 282° |
| 2026-05-07 10:59 | 59.61282 | 30.06008 | 14586 ft | 295 kts | 282° |
| 2026-05-07 10:59 | 59.61851 | 30.02168 | 14554 ft | 287 kts | 282° |
| 2026-05-07 10:59 | 59.62399 | 29.98447 | 14478 ft | 281 kts | 282° |
| 2026-05-07 11:00 | 59.62939 | 29.94781 | 14416 ft | 275 kts | 282° |
| 2026-05-07 11:00 | 59.63472 | 29.91141 | 14249 ft | 274 kts | 282° |
| 2026-05-07 11:00 | 59.63998 | 29.87560 | 14029 ft | 275 kts | 282° |
| 2026-05-07 11:00 | 59.64531 | 29.83921 | 13815 ft | 275 kts | 282° |
| 2026-05-07 11:01 | 59.65064 | 29.80273 | 13604 ft | 275 kts | 283° |
| 2026-05-07 11:01 | 59.65594 | 29.76635 | 13391 ft | 275 kts | 283° |
| 2026-05-07 11:01 | 59.66117 | 29.73044 | 13186 ft | 275 kts | 283° |
| 2026-05-07 11:01 | 59.66645 | 29.69410 | 12983 ft | 275 kts | 283° |
| 2026-05-07 11:02 | 59.67170 | 29.65780 | 12847 ft | 272 kts | 283° |
| 2026-05-07 11:02 | 59.67687 | 29.62207 | 12804 ft | 267 kts | 283° |
| 2026-05-07 11:02 | 59.68245 | 29.58734 | 12750 ft | 264 kts | 292° |
| 2026-05-07 11:02 | 59.69292 | 29.55761 | 12725 ft | 262 kts | 306° |
| 2026-05-07 11:03 | 59.70435 | 29.52981 | 12680 ft | 258 kts | 305° |
| 2026-05-07 11:03 | 59.71554 | 29.50219 | 12573 ft | 256 kts | 305° |
| 2026-05-07 11:03 | 59.72710 | 29.47569 | 12427 ft | 259 kts | 317° |
| 2026-05-07 11:03 | 59.74321 | 29.45906 | 12273 ft | 264 kts | 337° |
| 2026-05-07 11:04 | 59.76050 | 29.44665 | 12163 ft | 263 kts | 337° |
| 2026-05-07 11:04 | 59.77759 | 29.43426 | 12135 ft | 258 kts | 337° |
| 2026-05-07 11:04 | 59.79440 | 29.42190 | 12031 ft | 257 kts | 337° |
| 2026-05-07 11:04 | 59.81096 | 29.40963 | 11914 ft | 257 kts | 338° |
| 2026-05-07 11:05 | 59.82780 | 29.39713 | 11769 ft | 257 kts | 338° |
| 2026-05-07 11:05 | 59.84534 | 29.39119 | 11643 ft | 259 kts | 2° |
| 2026-05-07 11:05 | 59.86327 | 29.39479 | 11544 ft | 258 kts | 4° |
| 2026-05-07 11:05 | 59.88093 | 29.39810 | 11417 ft | 257 kts | 4° |
| 2026-05-07 11:06 | 59.89900 | 29.40129 | 11307 ft | 257 kts | 3° |
| 2026-05-07 11:06 | 59.91655 | 29.40432 | 11203 ft | 256 kts | 4° |
| 2026-05-07 11:06 | 59.93387 | 29.41243 | 11063 ft | 258 kts | 25° |
| 2026-05-07 11:06 | 59.94961 | 29.42930 | 10981 ft | 256 kts | 27° |
| 2026-05-07 11:07 | 59.96538 | 29.44593 | 10867 ft | 256 kts | 26° |
| 2026-05-07 11:07 | 59.98116 | 29.46225 | 10764 ft | 255 kts | 26° |
| 2026-05-07 11:07 | 59.99700 | 29.47852 | 10665 ft | 255 kts | 26° |
| 2026-05-07 11:07 | 60.01149 | 29.49881 | 10536 ft | 256 kts | 46° |
| 2026-05-07 11:08 | 60.02280 | 29.52559 | 10460 ft | 254 kts | 49° |
| 2026-05-07 11:08 | 60.03343 | 29.55397 | 10335 ft | 255 kts | 63° |
| 2026-05-07 11:08 | 60.03687 | 29.58835 | 10219 ft | 255 kts | 95° |
| 2026-05-07 11:08 | 60.03125 | 29.62185 | 10091 ft | 257 kts | 124° |
| 2026-05-07 11:09 | 60.01803 | 29.64541 | 9964 ft | 257 kts | 153° |
| 2026-05-07 11:09 | 60.00104 | 29.65689 | 9833 ft | 258 kts | 165° |
| 2026-05-07 11:09 | 59.98385 | 29.66542 | 9747 ft | 257 kts | 166° |
| 2026-05-07 11:09 | 59.96648 | 29.67382 | 9637 ft | 255 kts | 166° |
| 2026-05-07 11:10 | 59.94927 | 29.68223 | 9445 ft | 253 kts | 165° |
| 2026-05-07 11:10 | 59.93222 | 29.69064 | 9251 ft | 251 kts | 164° |
| 2026-05-07 11:10 | 59.91541 | 29.69904 | 9000 ft | 251 kts | 163° |
| 2026-05-07 11:10 | 59.89791 | 29.70784 | 8324 ft | 264 kts | 163° |
| 2026-05-07 11:11 | 59.88002 | 29.71686 | 7680 ft | 271 kts | 163° |
| 2026-05-07 11:11 | 59.86149 | 29.72621 | 7052 ft | 277 kts | 163° |
| 2026-05-07 11:11 | 59.84268 | 29.73589 | 6433 ft | 281 kts | 159° |
| 2026-05-07 11:11 | 59.82607 | 29.75517 | 5752 ft | 277 kts | 131° |
| 2026-05-07 11:12 | 59.81630 | 29.78765 | 5090 ft | 275 kts | 105° |
| 2026-05-07 11:12 | 59.81485 | 29.82527 | 4467 ft | 275 kts | 82° |
| 2026-05-07 11:12 | 59.82079 | 29.86096 | 3990 ft | 271 kts | 64° |
| 2026-05-07 11:12 | 59.82977 | 29.89395 | 3489 ft | 269 kts | 61° |
| 2026-05-07 11:13 | 59.83805 | 29.92679 | 3123 ft | 262 kts | 74° |
| 2026-05-07 11:13 | 59.83800 | 29.96200 | 2859 ft | 254 kts | 103° |
| 2026-05-07 11:13 | 59.83325 | 29.99521 | 2483 ft | 248 kts | 105° |
| 2026-05-07 11:13 | 59.82873 | 30.02701 | 2153 ft | 230 kts | 105° |
| 2026-05-07 11:14 | 59.82435 | 30.05666 | 1844 ft | 215 kts | 106° |
| 2026-05-07 11:14 | 59.82020 | 30.08386 | 1589 ft | 197 kts | 105° |
| 2026-05-07 11:14 | 59.81639 | 30.10903 | 1323 ft | 182 kts | 105° |
| 2026-05-07 11:14 | 59.81296 | 30.13206 | 1049 ft | 169 kts | 105° |
| 2026-05-07 11:15 | 59.80966 | 30.15385 | 838 ft | 161 kts | 107° |
| 2026-05-07 11:15 | 59.80652 | 30.17475 | 674 ft | 156 kts | 107° |
| 2026-05-07 11:15 | 59.80313 | 30.19582 | 368 ft | 159 kts | 107° |
| 2026-05-07 11:15 | 59.80018 | 30.21648 | 162 ft | 155 kts | 107° |
| 2026-05-07 11:16 | 59.79716 | 30.23637 | 96 ft | 144 kts | 106° |
| 2026-05-07 11:16 | 59.79417 | 30.25645 | 653 ft | 156 kts | 107° |
| 2026-05-07 11:16 | 59.79069 | 30.27840 | 1365 ft | 177 kts | 106° |
| 2026-05-07 11:16 | 59.78674 | 30.30381 | 1537 ft | 204 kts | 105° |
| 2026-05-07 11:17 | 59.78242 | 30.33213 | 1738 ft | 228 kts | 105° |
| 2026-05-07 11:17 | 59.77763 | 30.36326 | 2013 ft | 238 kts | 105° |
| 2026-05-07 11:17 | 59.77209 | 30.39453 | 1987 ft | 243 kts | 118° |
| 2026-05-07 11:17 | 59.75958 | 30.41705 | 2012 ft | 250 kts | 156° |
| 2026-05-07 11:18 | 59.74213 | 30.41993 | 2010 ft | 261 kts | 192° |
| 2026-05-07 11:18 | 59.72662 | 30.40131 | 2037 ft | 268 kts | 229° |
| 2026-05-07 11:18 | 59.71942 | 30.36764 | 2523 ft | 272 kts | 259° |
| 2026-05-07 11:18 | 59.71691 | 30.32985 | 2496 ft | 276 kts | 265° |
| 2026-05-07 11:19 | 59.71531 | 30.29257 | 2474 ft | 273 kts | 266° |
| 2026-05-07 11:19 | 59.71407 | 30.25543 | 2495 ft | 268 kts | 269° |
| 2026-05-07 11:19 | 59.71493 | 30.21877 | 2488 ft | 265 kts | 281° |
| 2026-05-07 11:19 | 59.71954 | 30.18375 | 2502 ft | 263 kts | 291° |
| 2026-05-07 11:20 | 59.72708 | 30.15082 | 2485 ft | 259 kts | 300° |
| 2026-05-07 11:20 | 59.73629 | 30.12095 | 2479 ft | 250 kts | 306° |
| 2026-05-07 11:20 | 59.74657 | 30.09345 | 2495 ft | 243 kts | 310° |
| 2026-05-07 11:20 | 59.75689 | 30.06814 | 2490 ft | 233 kts | 311° |
| 2026-05-07 11:21 | 59.76699 | 30.04434 | 2488 ft | 216 kts | 313° |
| 2026-05-07 11:21 | 59.77640 | 30.02251 | 2512 ft | 201 kts | 312° |
| 2026-05-07 11:21 | 59.78529 | 30.00206 | 2487 ft | 188 kts | 311° |
| 2026-05-07 11:21 | 59.79048 | 29.97898 | 2467 ft | 189 kts | 271° |
| 2026-05-07 11:22 | 59.79001 | 29.95247 | 2516 ft | 197 kts | 269° |
| 2026-05-07 11:22 | 59.78986 | 29.92535 | 2484 ft | 194 kts | 270° |
| 2026-05-07 11:22 | 59.79002 | 29.89891 | 2457 ft | 189 kts | 272° |
| 2026-05-07 11:22 | 59.79246 | 29.87373 | 2438 ft | 187 kts | 304° |
| 2026-05-07 11:23 | 59.80235 | 29.85842 | 2500 ft | 183 kts | 346° |
| 2026-05-07 11:23 | 59.81473 | 29.85871 | 2503 ft | 179 kts | 24° |
| 2026-05-07 11:23 | 59.82455 | 29.87288 | 2499 ft | 177 kts | 57° |
| 2026-05-07 11:23 | 59.83051 | 29.89376 | 2494 ft | 174 kts | 62° |
| 2026-05-07 11:24 | 59.83637 | 29.91462 | 2489 ft | 172 kts | 62° |
| 2026-05-07 11:24 | 59.84006 | 29.93676 | 2422 ft | 171 kts | 94° |
| 2026-05-07 11:24 | 59.83778 | 29.96008 | 2362 ft | 172 kts | 100° |
| 2026-05-07 11:24 | 59.83519 | 29.98269 | 2342 ft | 161 kts | 103° |
| 2026-05-07 11:25 | 59.83229 | 30.00343 | 2211 ft | 153 kts | 105° |
| 2026-05-07 11:25 | 59.82935 | 30.02314 | 2185 ft | 148 kts | 105° |
| 2026-05-07 11:25 | 59.82636 | 30.04321 | 1974 ft | 153 kts | 105° |
| 2026-05-07 11:25 | 59.82334 | 30.06308 | 1797 ft | 149 kts | 105° |
| 2026-05-07 11:26 | 59.82034 | 30.08292 | 1599 ft | 150 kts | 104° |
| 2026-05-07 11:26 | 59.81735 | 30.10270 | 1391 ft | 150 kts | 105° |
| 2026-05-07 11:26 | 59.81441 | 30.12238 | 1147 ft | 146 kts | 106° |
| 2026-05-07 11:26 | 59.81143 | 30.14207 | 966 ft | 153 kts | 106° |
| 2026-05-07 11:27 | 59.80822 | 30.16245 | 677 ft | 157 kts | 107° |
| 2026-05-07 11:27 | 59.80520 | 30.18294 | 487 ft | 155 kts | 105° |
| 2026-05-07 11:27 | 59.80224 | 30.20351 | 279 ft | 152 kts | 107° |
| 2026-05-07 11:27 | 59.79930 | 30.22274 | 92 ft | 134 kts | 107° |
| 2026-05-07 11:28 | 59.79704 | 30.23770 | 81 ft | 85 kts | 104° |
| 2026-05-07 11:28 | 59.79657 | 30.24112 | 82 ft | 0 kts | 107° |
| 2026-05-07 11:28 | 59.79656 | 30.24116 | 82 ft | 1 kts | 107° |
| 2026-05-07 11:28 | 59.79651 | 30.24156 | 85 ft | 6 kts | 105° |
| 2026-05-07 11:29 | 59.79633 | 30.24279 | 82 ft | 13 kts | 105° |
| 2026-05-07 11:29 | 59.79602 | 30.24497 | 82 ft | 19 kts | 108° |
| 2026-05-07 11:29 | 59.79554 | 30.24789 | 87 ft | 25 kts | 107° |
| 2026-05-07 11:29 | 59.79502 | 30.25144 | 83 ft | 27 kts | 104° |
| 2026-05-07 11:30 | 59.79496 | 30.25504 | 83 ft | 26 kts | 88° |
| 2026-05-07 11:30 | 59.79517 | 30.25751 | 86 ft | 18 kts | 77° |
| 2026-05-07 11:30 | 59.79561 | 30.25966 | 84 ft | 17 kts | 41° |
| 2026-05-07 11:30 | 59.79665 | 30.26059 | 81 ft | 16 kts | 27° |
| 2026-05-07 11:31 | 59.79771 | 30.26129 | 84 ft | 16 kts | 15° |
| 2026-05-07 11:31 | 59.79853 | 30.26190 | 86 ft | 6 kts | 45° |
| 2026-05-07 11:31 | 59.79857 | 30.26276 | 83 ft | 7 kts | 103° |
| 2026-05-07 11:31 | 59.79848 | 30.26342 | 81 ft | 0 kts | 106° |